Map

Track Data

SID SEASON NUMBER BASIN SUBBASIN NAME ISO_TIME NATURE LAT LON WMO_WIND WMO_PRES WMO_AGENCY TRACK_TYPE DIST2LAND LANDFALL IFLAG USA_AGENCY USA_ATCF_ID USA_LAT USA_LON USA_RECORD USA_STATUS USA_WIND USA_PRES USA_SSHS USA_R34_NE USA_R34_SE USA_R34_SW USA_R34_NW USA_R50_NE USA_R50_SE USA_R50_SW USA_R50_NW USA_R64_NE USA_R64_SE USA_R64_SW USA_R64_NW USA_POCI USA_ROCI USA_RMW USA_EYE TOKYO_LAT TOKYO_LON TOKYO_GRADE TOKYO_WIND TOKYO_PRES TOKYO_R50_DIR TOKYO_R50_LONG TOKYO_R50_SHORT TOKYO_R30_DIR TOKYO_R30_LONG TOKYO_R30_SHORT TOKYO_LAND CMA_LAT CMA_LON CMA_CAT CMA_WIND CMA_PRES HKO_LAT HKO_LON HKO_CAT HKO_WIND HKO_PRES NEWDELHI_LAT NEWDELHI_LON NEWDELHI_GRADE NEWDELHI_WIND NEWDELHI_PRES NEWDELHI_CI NEWDELHI_DP NEWDELHI_POCI REUNION_LAT REUNION_LON REUNION_TYPE REUNION_WIND REUNION_PRES REUNION_TNUM REUNION_CI REUNION_RMW REUNION_R34_NE REUNION_R34_SE REUNION_R34_SW REUNION_R34_NW REUNION_R50_NE REUNION_R50_SE REUNION_R50_SW REUNION_R50_NW REUNION_R64_NE REUNION_R64_SE REUNION_R64_SW REUNION_R64_NW BOM_LAT BOM_LON BOM_TYPE BOM_WIND BOM_PRES BOM_TNUM BOM_CI BOM_RMW BOM_R34_NE BOM_R34_SE BOM_R34_SW BOM_R34_NW BOM_R50_NE BOM_R50_SE BOM_R50_SW BOM_R50_NW BOM_R64_NE BOM_R64_SE BOM_R64_SW BOM_R64_NW BOM_ROCI BOM_POCI BOM_EYE BOM_POS_METHOD BOM_PRES_METHOD NADI_LAT NADI_LON NADI_CAT NADI_WIND NADI_PRES WELLINGTON_LAT WELLINGTON_LON WELLINGTON_WIND WELLINGTON_PRES DS824_LAT DS824_LON DS824_STAGE DS824_WIND DS824_PRES TD9636_LAT TD9636_LON TD9636_STAGE TD9636_WIND TD9636_PRES TD9635_LAT TD9635_LON TD9635_WIND TD9635_PRES TD9635_ROCI NEUMANN_LAT NEUMANN_LON NEUMANN_CLASS NEUMANN_WIND NEUMANN_PRES MLC_LAT MLC_LON MLC_CLASS MLC_WIND MLC_PRES USA_GUST BOM_GUST BOM_GUST_PER REUNION_GUST REUNION_GUST_PER USA_SEAHGT USA_SEARAD_NE USA_SEARAD_SE USA_SEARAD_SW USA_SEARAD_NW STORM_SPEED STORM_DIR
1941299N20150 1941 67 WP MM NOT_NAMED 1941-10-25 12:00:00 NR 20.0000 150.000 main 1936 1896 __________O___ -1 20.0000 150.000 4 8 303
1941299N20150 1941 67 WP MM NOT_NAMED 1941-10-25 15:00:00 NR 20.2304 149.626 main 1896 1862 __________P___ -1 20.2304 149.626 4 8 303
1941299N20150 1941 67 WP MM NOT_NAMED 1941-10-25 18:00:00 NR 20.4484 149.261 main 1862 1823 __________P___ -1 20.4484 149.261 4 8 302
1941299N20150 1941 67 WP MM NOT_NAMED 1941-10-25 21:00:00 NR 20.6421 148.916 main 1823 1789 __________P___ -1 20.6421 148.916 4 7 300
1941299N20150 1941 67 WP MM NOT_NAMED 1941-10-26 00:00:00 NR 20.8000 148.600 main 1789 1765 __________O___ -1 20.8000 148.600 4 6 296
1941299N20150 1941 67 WP MM NOT_NAMED 1941-10-26 03:00:00 NR 20.9146 148.321 main 1765 1746 __________P___ -1 20.9146 148.321 4 5 291
1941299N20150 1941 67 WP MM NOT_NAMED 1941-10-26 06:00:00 NR 20.9945 148.069 main 1746 1733 __________P___ -1 20.9945 148.069 4 5 287
1941299N20150 1941 67 WP MM NOT_NAMED 1941-10-26 09:00:00 NR 21.0522 147.833 main 1722 1714 __________P___ -1 21.0522 147.833 4 5 284
1941299N20150 1941 67 WP MM NOT_NAMED 1941-10-26 12:00:00 NR 21.1000 147.600 main 1714 1695 __________O___ -1 21.1000 147.600 4 5 284
1941299N20150 1941 67 WP MM NOT_NAMED 1941-10-26 15:00:00 NR 21.1611 147.354 main 1695 1683 __________P___ -1 21.1611 147.354 4 5 284
1941299N20150 1941 67 WP MM NOT_NAMED 1941-10-26 18:00:00 NR 21.2148 147.107 main 1683 1664 __________P___ -1 21.2148 147.107 4 5 282
1941299N20150 1941 67 WP MM NOT_NAMED 1941-10-26 21:00:00 NR 21.2611 146.857 main 1664 1653 __________P___ -1 21.2611 146.857 4 5 280
1941299N20150 1941 67 WP MM NOT_NAMED 1941-10-27 00:00:00 NR 21.3000 146.600 main 1653 1645 __________O___ -1 21.3000 146.600 4 5 278
1941299N20150 1941 67 WP MM NOT_NAMED 1941-10-27 03:00:00 NR 21.3320 146.340 main 1641 1623 __________P___ -1 21.3320 146.340 4 5 277
1941299N20150 1941 67 WP MM NOT_NAMED 1941-10-27 06:00:00 NR 21.3572 146.072 main 1623 1613 __________P___ -1 21.3572 146.072 4 5 275
1941299N20150 1941 67 WP MM NOT_NAMED 1941-10-27 09:00:00 NR 21.3788 145.793 main 1613 1603 __________P___ -1 21.3788 145.793 4 5 275
1941299N20150 1941 67 WP MM NOT_NAMED 1941-10-27 12:00:00 NR 21.4000 145.500 main 1603 1593 __________O___ -1 21.4000 145.500 4 6 275
1941299N20150 1941 67 WP MM NOT_NAMED 1941-10-27 15:00:00 NR 21.4289 145.198 main 1593 1573 __________P___ -1 21.4289 145.198 4 6 276
1941299N20150 1941 67 WP MM NOT_NAMED 1941-10-27 18:00:00 NR 21.4572 144.880 main 1573 1564 __________P___ -1 21.4572 144.880 4 6 275
1941299N20150 1941 67 WP MM NOT_NAMED 1941-10-27 21:00:00 NR 21.4820 144.548 main 1561 1553 __________P___ -1 21.4820 144.548 4 6 274
1941299N20150 1941 67 WP MM NOT_NAMED 1941-10-28 00:00:00 NR 21.5000 144.200 main 1553 1544 __________O___ -1 21.5000 144.200 4 7 273
1941299N20150 1941 67 WP MM NOT_NAMED 1941-10-28 03:00:00 NR 21.5113 143.831 main 1541 1528 __________P___ -1 21.5113 143.831 4 7 271
1941299N20150 1941 67 WP MM NOT_NAMED 1941-10-28 06:00:00 NR 21.5150 143.450 main 1528 1509 __________P___ -1 21.5150 143.450 4 7 270
1941299N20150 1941 67 WP MM NOT_NAMED 1941-10-28 09:00:00 NR 21.5113 143.069 main 1509 1491 __________P___ -1 21.5113 143.069 4 7 269
1941299N20150 1941 67 WP MM NOT_NAMED 1941-10-28 12:00:00 NR 21.5000 142.700 main 1491 1478 __________O___ -1 21.5000 142.700 4 6 267
1941299N20150 1941 67 WP MM NOT_NAMED 1941-10-28 15:00:00 NR 21.4733 142.389 main 1478 1470 __________P___ -1 21.4733 142.389 4 6 264
1941299N20150 1941 67 WP MM NOT_NAMED 1941-10-28 18:00:00 NR 21.4413 142.087 main 1476 1463 __________P___ -1 21.4413 142.087 4 6 264
1941299N20150 1941 67 WP MM NOT_NAMED 1941-10-28 21:00:00 NR 21.4138 141.767 main 1463 1448 __________P___ -1 21.4138 141.767 4 6 266
1941299N20150 1941 67 WP MM NOT_NAMED 1941-10-29 00:00:00 NR 21.4000 141.400 main 1448 1430 __________O___ -1 21.4000 141.400 4 8 267
1941299N20150 1941 67 WP MM NOT_NAMED 1941-10-29 03:00:00 NR 21.3707 140.921 main 1430 1414 __________P___ -1 21.3707 140.921 4 9 268
1941299N20150 1941 67 WP MM NOT_NAMED 1941-10-29 06:00:00 NR 21.3611 140.399 main 1414 1399 __________P___ -1 21.3611 140.399 4 10 271
1941299N20150 1941 67 WP MM NOT_NAMED 1941-10-29 09:00:00 NR 21.3957 139.877 main 1399 1361 __________P___ -1 21.3957 139.877 4 9 278
1941299N20150 1941 67 WP MM NOT_NAMED 1941-10-29 12:00:00 NR 21.5000 139.400 main 1361 1319 __________O___ -1 21.5000 139.400 4 9 290
1941299N20150 1941 67 WP MM NOT_NAMED 1941-10-29 15:00:00 NR 21.7110 138.965 main 1319 1269 __________P___ -1 21.7110 138.965 4 9 303
1941299N20150 1941 67 WP MM NOT_NAMED 1941-10-29 18:00:00 NR 21.9898 138.587 main 1269 1224 __________P___ -1 21.9898 138.587 4 9 313
1941299N20150 1941 67 WP MM NOT_NAMED 1941-10-29 21:00:00 NR 22.2986 138.290 main 1224 1184 __________P___ -1 22.2986 138.290 4 8 324
1941299N20150 1941 67 WP MM NOT_NAMED 1941-10-30 00:00:00 NR 22.6000 138.100 main 1184 1160 __________O___ -1 22.6000 138.100 4 6 335
1941299N20150 1941 67 WP MM NOT_NAMED 1941-10-30 03:00:00 NR 22.8551 138.013 main 1151 1132 __________P___ -1 22.8551 138.013 4 5 354
1941299N20150 1941 67 WP MM NOT_NAMED 1941-10-30 06:00:00 NR 23.0944 138.034 main 1132 1119 __________P___ -1 23.0944 138.034 4 5 14
1941299N20150 1941 67 WP MM NOT_NAMED 1941-10-30 09:00:00 NR 23.3115 138.138 main 1119 1113 __________P___ -1 23.3115 138.138 4 5 31
1941299N20150 1941 67 WP MM NOT_NAMED 1941-10-30 12:00:00 NR 23.5000 138.300 main 1113 1101 __________O___ -1 23.5000 138.300 4 4 37
1941299N20150 1941 67 WP MM NOT_NAMED 1941-10-30 15:00:00 NR 23.6654 138.426 main 1101 1098 __________P___ -1 23.6654 138.426 4 4 43
1941299N20150 1941 67 WP MM NOT_NAMED 1941-10-30 18:00:00 NR 23.8015 138.608 main 1104 1097 __________P___ -1 23.8015 138.608 4 5 58
1941299N20150 1941 67 WP MM NOT_NAMED 1941-10-30 21:00:00 NR 23.9119 138.860 main 1102 1094 __________P___ -1 23.9119 138.860 4 6 70
1941299N20150 1941 67 WP MM NOT_NAMED 1941-10-31 00:00:00 NR 24.0000 139.200 main 1100 1098 __________O___ -1 24.0000 139.200 4 7 78
1941299N20150 1941 67 WP MM NOT_NAMED 1941-10-31 03:00:00 NR 24.0643 139.651 main 1105 1105 __________P___ -1 24.0643 139.651 4 9 83
1941299N20150 1941 67 WP MM NOT_NAMED 1941-10-31 06:00:00 NR 24.1087 140.183 main 1122 1122 __________P___ -1 24.1087 140.183 4 10 85
1941299N20150 1941 67 WP MM NOT_NAMED 1941-10-31 09:00:00 NR 24.1486 140.748 main 1142 1135 __________P___ -1 24.1486 140.748 4 10 85
1941299N20150 1941 67 WP MM NOT_NAMED 1941-10-31 12:00:00 NR 24.2000 141.300 main 1157 1157 __________O___ -1 24.2000 141.300 4 10 82
1941299N20150 1941 67 WP MM NOT_NAMED 1941-10-31 15:00:00 NR 24.2756 141.802 main 1170 1170 __________P___ -1 24.2756 141.802 4 9 79
1941299N20150 1941 67 WP MM NOT_NAMED 1941-10-31 18:00:00 NR 24.3723 142.259 main 1186 1185 __________P___ -1 24.3723 142.259 4 8 76
1941299N20150 1941 67 WP MM NOT_NAMED 1941-10-31 21:00:00 NR 24.4829 142.687 main 1188 1183 __________P___ -1 24.4829 142.687 4 8 73
1941299N20150 1941 67 WP MM NOT_NAMED 1941-11-01 00:00:00 NR 24.6000 143.100 main 1189 __________O___ -1 24.6000 143.100 4 8 73

Digital Typhoon Data and Search

About IBTrACS Database

This database is a web-friendly format of International Best Track Archive for Climate Stewardship (IBTrACS), a global best track data archive curated by NOAA dating back to 1842.

Updated: 2021-10-21